Startpagina
METAR-TAF:

METAR-TAF

Vliegvelden :

Manilla, Filippijnen

Ninoy Aquino International Airport

breedte: 14-31N, lengte: 121-00E, hoogte: 14 m

Actueel weer

Dit bericht is 27 minuten geleden gemaakt, om 18:00 UTC
Wind 6 kt uit het oosten
Temperatuur 26°C
Vochtigheid 84%
Druk 1013 hPa
Zicht 10 km of meer
Weinig wolken op 2500 ft

METAR: RPLL 231800Z 08006KT 9999 FEW025 26/23 Q1013 NOSIG RMK A2991

Tijdstip: 02:27 (18:27 UTC)

Verwachting

Dit bericht is 1 uur en het 27 minuten geleden gemaakt, om 17:00 UTC
Verwachting geldig van 23 om 18 UTC tot 24 om 24 UTC
Wind 10 kt uit het oostnoordoosten
Zicht 10 km of meer
Weinig wolken op 2500 ft
Verspreide wolken op 30000 ft
Tijdelijke
van 23 om 18 UTC tot 23 om 24 UTC
Wind 4 kt uit het oostnoordoosten
Tijdelijke
van 24 om 02 UTC tot 24 om 08 UTC
Wind 14 kt uit het noordoosten met uitschieters tot 24 kt

TAF: RPLL 231700Z 2318/2424 06010KT 9999 FEW025 SCT300 TX32/2406Z TN24/2322Z TEMPO 2318/2324 06004KT TEMPO 2402/2408 05014G24KT

Waarnemingen en weersverwachtingen van meer dan 4000 vliegvelden (METAR en TAF).

De beschikbare stations zijn de gele en rode punten op de kaart.

Ga met uw muis naar het station om de naam te zien.

Klik dan om waarnemingen en weersverwachtingen te zien.

kaart wijzigen: klik op de groene knoppen met een zwart kruis om in te zoomen, op de groene knop met een streepje om uit te zoomen of op de groene pijlen voor aangrenzende kaarten.


METAR-TAF: